sensor_id;sensor_type;location;lat;lon;timestamp;pressure;altitude;pressure_sealevel;temperature;humidity
25947;BME280;13745;51.470;9.894;2023-05-08T00:00:32;99982.31;;;14.39;63.78
25947;BME280;13745;51.470;9.894;2023-05-08T00:03:17;99978.84;;;14.38;63.87
25947;BME280;13745;51.470;9.894;2023-05-08T00:06:04;99984.13;;;14.35;63.61
25947;BME280;13745;51.470;9.894;2023-05-08T00:08:50;99981.50;;;14.35;63.51
25947;BME280;13745;51.470;9.894;2023-05-08T00:11:35;99975.47;;;14.33;63.95
25947;BME280;13745;51.470;9.894;2023-05-08T00:14:20;99968.53;;;14.30;63.96
25947;BME280;13745;51.470;9.894;2023-05-08T00:17:05;99973.78;;;14.29;63.91
25947;BME280;13745;51.470;9.894;2023-05-08T00:19:50;99975.53;;;14.28;64.18
25947;BME280;13745;51.470;9.894;2023-05-08T00:22:37;99980.81;;;14.27;63.98
25947;BME280;13745;51.470;9.894;2023-05-08T00:25:22;99973.91;;;14.24;64.05
25947;BME280;13745;51.470;9.894;2023-05-08T00:28:08;99973.91;;;14.23;63.91
25947;BME280;13745;51.470;9.894;2023-05-08T00:30:53;99972.25;;;14.19;63.95
25947;BME280;13745;51.470;9.894;2023-05-08T00:33:38;99973.19;;;14.15;64.02
25947;BME280;13745;51.470;9.894;2023-05-08T00:36:24;99981.03;;;14.13;64.15
25947;BME280;13745;51.470;9.894;2023-05-08T00:39:10;99985.44;;;14.11;63.92
25947;BME280;13745;51.470;9.894;2023-05-08T00:41:55;99981.94;;;14.12;64.31
25947;BME280;13745;51.470;9.894;2023-05-08T00:44:40;99980.25;;;14.10;64.41
25947;BME280;13745;51.470;9.894;2023-05-08T00:47:25;99982.84;;;14.10;64.10
25947;BME280;13745;51.470;9.894;2023-05-08T00:50:10;99987.25;;;14.08;64.14
25947;BME280;13745;51.470;9.894;2023-05-08T00:52:56;99985.50;;;14.06;64.45
25947;BME280;13745;51.470;9.894;2023-05-08T00:55:43;99978.56;;;14.05;64.20
25947;BME280;13745;51.470;9.894;2023-05-08T00:58:30;99979.47;;;14.04;64.53
25947;BME280;13745;51.470;9.894;2023-05-08T01:01:16;99975.16;;;14.02;64.25
25947;BME280;13745;51.470;9.894;2023-05-08T01:04:02;99976.09;;;13.99;64.57
25947;BME280;13745;51.470;9.894;2023-05-08T01:06:47;99974.38;;;13.98;64.37
25947;BME280;13745;51.470;9.894;2023-05-08T01:09:32;99972.63;;;13.97;64.76
25947;BME280;13745;51.470;9.894;2023-05-08T01:12:29;99976.16;;;13.95;64.50
25947;BME280;13745;51.470;9.894;2023-05-08T01:15:20;99976.19;;;13.93;64.81
25947;BME280;13745;51.470;9.894;2023-05-08T01:18:12;99977.13;;;13.89;65.01
25947;BME280;13745;51.470;9.894;2023-05-08T01:21:02;99975.44;;;13.87;64.58
25947;BME280;13745;51.470;9.894;2023-05-08T01:24:25;99974.53;;;13.88;64.68
25947;BME280;13745;51.470;9.894;2023-05-08T01:27:29;99976.34;;;13.84;64.85
25947;BME280;13745;51.470;9.894;2023-05-08T01:30:40;99972.06;;;13.80;64.91
25947;BME280;13745;51.470;9.894;2023-05-08T01:33:33;99978.19;;;13.77;64.73
25947;BME280;13745;51.470;9.894;2023-05-08T01:36:24;99974.75;;;13.75;64.69
25947;BME280;13745;51.470;9.894;2023-05-08T01:39:16;99978.22;;;13.76;64.65
25947;BME280;13745;51.470;9.894;2023-05-08T01:42:07;99976.50;;;13.73;64.82
25947;BME280;13745;51.470;9.894;2023-05-08T01:44:58;99973.94;;;13.72;64.74
25947;BME280;13745;51.470;9.894;2023-05-08T01:47:46;99974.81;;;13.71;64.85
25947;BME280;13745;51.470;9.894;2023-05-08T01:50:41;99981.81;;;13.69;64.72
25947;BME280;13745;51.470;9.894;2023-05-08T01:53:29;99975.75;;;13.68;64.83
25947;BME280;13745;51.470;9.894;2023-05-08T01:56:18;99985.34;;;13.65;64.67
25947;BME280;13745;51.470;9.894;2023-05-08T01:59:06;99981.06;;;13.62;64.83
25947;BME280;13745;51.470;9.894;2023-05-08T02:01:54;99984.59;;;13.58;64.83
25947;BME280;13745;51.470;9.894;2023-05-08T02:04:43;99982.06;;;13.54;64.89
25947;BME280;13745;51.470;9.894;2023-05-08T02:07:32;99982.97;;;13.51;64.83
25947;BME280;13745;51.470;9.894;2023-05-08T02:10:22;99981.25;;;13.48;65.07
25947;BME280;13745;51.470;9.894;2023-05-08T02:13:09;99983.03;;;13.46;65.07
25947;BME280;13745;51.470;9.894;2023-05-08T02:15:55;99982.16;;;13.46;65.16
25947;BME280;13745;51.470;9.894;2023-05-08T02:18:43;99979.66;;;13.41;65.10
25947;BME280;13745;51.470;9.894;2023-05-08T02:21:31;99972.75;;;13.37;64.89
25947;BME280;13745;51.470;9.894;2023-05-08T02:24:19;99984.09;;;13.35;64.79
25947;BME280;13745;51.470;9.894;2023-05-08T02:27:05;99977.16;;;13.34;65.22
25947;BME280;13745;51.470;9.894;2023-05-08T02:29:52;99986.78;;;13.29;65.38
25947;BME280;13745;51.470;9.894;2023-05-08T02:32:40;99987.66;;;13.28;65.16
25947;BME280;13745;51.470;9.894;2023-05-08T02:35:28;99992.94;;;13.25;65.01
25947;BME280;13745;51.470;9.894;2023-05-08T02:38:16;99986.88;;;13.21;65.17
25947;BME280;13745;51.470;9.894;2023-05-08T02:41:06;99991.22;;;13.19;64.95
25947;BME280;13745;51.470;9.894;2023-05-08T02:43:53;99982.59;;;13.15;65.07
25947;BME280;13745;51.470;9.894;2023-05-08T02:46:44;99993.91;;;13.13;64.99
25947;BME280;13745;51.470;9.894;2023-05-08T02:49:35;99987.03;;;13.09;65.13
25947;BME280;13745;51.470;9.894;2023-05-08T02:52:26;99977.53;;;13.05;65.17
25947;BME280;13745;51.470;9.894;2023-05-08T02:55:18;99987.97;;;13.03;65.20
25947;BME280;13745;51.470;9.894;2023-05-08T02:58:14;99983.69;;;13.01;65.28
25947;BME280;13745;51.470;9.894;2023-05-08T03:01:03;99984.59;;;12.97;65.36
25947;BME280;13745;51.470;9.894;2023-05-08T03:04:04;99977.72;;;12.92;65.42
25947;BME280;13745;51.470;9.894;2023-05-08T03:06:53;99974.25;;;12.90;65.18
25947;BME280;13745;51.470;9.894;2023-05-08T03:09:42;99973.44;;;12.87;65.26
25947;BME280;13745;51.470;9.894;2023-05-08T03:12:31;99965.69;;;12.82;65.37
25947;BME280;13745;51.470;9.894;2023-05-08T03:15:23;99977.00;;;12.80;65.52
25947;BME280;13745;51.470;9.894;2023-05-08T03:18:12;99976.16;;;12.78;65.68
25947;BME280;13745;51.470;9.894;2023-05-08T03:20:58;99974.47;;;12.75;65.46
25947;BME280;13745;51.470;9.894;2023-05-08T03:23:45;99977.94;;;12.73;65.58
25947;BME280;13745;51.470;9.894;2023-05-08T03:26:32;99974.50;;;12.72;65.57
25947;BME280;13745;51.470;9.894;2023-05-08T03:29:18;99975.41;;;12.70;65.60
25947;BME280;13745;51.470;9.894;2023-05-08T03:32:06;99978.03;;;12.68;65.83
25947;BME280;13745;51.470;9.894;2023-05-08T03:34:53;99977.19;;;12.66;65.56
25947;BME280;13745;51.470;9.894;2023-05-08T03:37:39;99977.19;;;12.64;65.82
25947;BME280;13745;51.470;9.894;2023-05-08T03:40:26;99978.94;;;12.64;65.66
25947;BME280;13745;51.470;9.894;2023-05-08T03:43:12;99972.91;;;12.60;65.70
25947;BME280;13745;51.470;9.894;2023-05-08T03:45:59;99974.66;;;12.60;65.73
25947;BME280;13745;51.470;9.894;2023-05-08T03:48:48;99969.50;;;12.55;65.97
25947;BME280;13745;51.470;9.894;2023-05-08T03:51:37;99964.28;;;12.55;65.95
25947;BME280;13745;51.470;9.894;2023-05-08T03:54:23;99973.88;;;12.53;65.67
25947;BME280;13745;51.470;9.894;2023-05-08T03:57:09;99972.13;;;12.54;65.88
25947;BME280;13745;51.470;9.894;2023-05-08T04:00:05;99976.50;;;12.52;65.92
25947;BME280;13745;51.470;9.894;2023-05-08T04:03:10;99976.50;;;12.50;66.00
25947;BME280;13745;51.470;9.894;2023-05-08T04:06:04;99974.78;;;12.51;66.05
25947;BME280;13745;51.470;9.894;2023-05-08T04:08:54;99971.31;;;12.49;66.17
25947;BME280;13745;51.470;9.894;2023-05-08T04:11:49;99979.09;;;12.49;65.86
25947;BME280;13745;51.470;9.894;2023-05-08T04:14:41;99975.66;;;12.50;66.20
25947;BME280;13745;51.470;9.894;2023-05-08T04:17:33;99980.84;;;12.50;66.28
25947;BME280;13745;51.470;9.894;2023-05-08T04:20:21;99975.63;;;12.51;66.22
25947;BME280;13745;51.470;9.894;2023-05-08T04:23:13;99977.34;;;12.52;66.37
25947;BME280;13745;51.470;9.894;2023-05-08T04:26:02;99984.25;;;12.55;66.08
25947;BME280;13745;51.470;9.894;2023-05-08T04:28:48;99983.34;;;12.56;66.20
25947;BME280;13745;51.470;9.894;2023-05-08T04:31:35;99979.03;;;12.58;66.18
25947;BME280;13745;51.470;9.894;2023-05-08T04:34:21;99977.25;;;12.60;66.31
25947;BME280;13745;51.470;9.894;2023-05-08T04:37:07;99984.13;;;12.64;66.31
25947;BME280;13745;51.470;9.894;2023-05-08T04:39:54;99993.66;;;12.67;66.41
25947;BME280;13745;51.470;9.894;2023-05-08T04:42:40;99989.28;;;12.69;66.30
25947;BME280;13745;51.470;9.894;2023-05-08T04:45:26;99994.44;;;12.72;66.33
25947;BME280;13745;51.470;9.894;2023-05-08T04:48:11;99992.69;;;12.75;66.35
25947;BME280;13745;51.470;9.894;2023-05-08T04:50:57;99993.44;;;12.82;66.46
25947;BME280;13745;51.470;9.894;2023-05-08T04:53:42;99993.38;;;12.88;66.35
25947;BME280;13745;51.470;9.894;2023-05-08T04:56:28;99990.69;;;12.94;66.46
25947;BME280;13745;51.470;9.894;2023-05-08T04:59:13;99985.41;;;13.02;66.31
25947;BME280;13745;51.470;9.894;2023-05-08T05:01:58;99986.19;;;13.08;66.36
25947;BME280;13745;51.470;9.894;2023-05-08T05:04:45;99989.53;;;13.15;66.46
25947;BME280;13745;51.470;9.894;2023-05-08T05:07:31;99999.94;;;13.19;66.24
25947;BME280;13745;51.470;9.894;2023-05-08T05:10:17;99998.16;;;13.21;66.31
25947;BME280;13745;51.470;9.894;2023-05-08T05:13:04;99996.38;;;13.25;66.48
25947;BME280;13745;51.470;9.894;2023-05-08T05:15:49;100003.25;;;13.29;66.42
25947;BME280;13745;51.470;9.894;2023-05-08T05:18:37;100002.34;;;13.32;66.45
25947;BME280;13745;51.470;9.894;2023-05-08T05:21:22;100001.44;;;13.36;66.32
25947;BME280;13745;51.470;9.894;2023-05-08T05:24:07;99998.75;;;13.42;66.53
25947;BME280;13745;51.470;9.894;2023-05-08T05:26:53;100000.38;;;13.49;66.45
25947;BME280;13745;51.470;9.894;2023-05-08T05:29:40;100000.22;;;13.58;66.27
25947;BME280;13745;51.470;9.894;2023-05-08T05:32:25;100003.53;;;13.69;66.56
25947;BME280;13745;51.470;9.894;2023-05-08T05:35:10;99994.69;;;13.78;66.33
25947;BME280;13745;51.470;9.894;2023-05-08T05:37:55;100000.56;;;13.89;66.30
25947;BME280;13745;51.470;9.894;2023-05-08T05:40:40;100005.56;;;14.03;66.13
25947;BME280;13745;51.470;9.894;2023-05-08T05:43:25;100005.38;;;14.14;66.33
25947;BME280;13745;51.470;9.894;2023-05-08T05:46:12;100012.19;;;14.21;65.66
25947;BME280;13745;51.470;9.894;2023-05-08T05:48:58;100012.00;;;14.33;65.87
25947;BME280;13745;51.470;9.894;2023-05-08T05:51:44;100013.56;;;14.42;65.66
25947;BME280;13745;51.470;9.894;2023-05-08T05:54:29;100017.72;;;14.53;65.55
25947;BME280;13745;51.470;9.894;2023-05-08T05:57:15;100012.28;;;14.66;65.53
25947;BME280;13745;51.470;9.894;2023-05-08T06:00:00;100020.72;;;14.77;65.52
25947;BME280;13745;51.470;9.894;2023-05-08T06:02:49;100014.44;;;14.87;65.02
25947;BME280;13745;51.470;9.894;2023-05-08T06:05:34;100006.34;;;14.99;64.88
25947;BME280;13745;51.470;9.894;2023-05-08T06:08:20;100002.59;;;15.11;64.72
25947;BME280;13745;51.470;9.894;2023-05-08T06:11:05;100004.97;;;15.23;65.03
25947;BME280;13745;51.470;9.894;2023-05-08T06:13:50;100001.13;;;15.39;64.44
25947;BME280;13745;51.470;9.894;2023-05-08T06:16:36;100002.53;;;15.53;64.43
25947;BME280;13745;51.470;9.894;2023-05-08T06:19:23;100003.19;;;15.64;64.23
25947;BME280;13745;51.470;9.894;2023-05-08T06:22:08;100001.06;;;15.78;64.07
25947;BME280;13745;51.470;9.894;2023-05-08T06:24:53;100003.31;;;15.93;64.17
25947;BME280;13745;51.470;9.894;2023-05-08T06:27:39;99995.94;;;16.09;63.65
25947;BME280;13745;51.470;9.894;2023-05-08T06:30:24;99998.88;;;16.29;63.62
25947;BME280;13745;51.470;9.894;2023-05-08T06:33:09;99996.59;;;16.50;63.55
25947;BME280;13745;51.470;9.894;2023-05-08T06:35:56;99998.63;;;16.71;63.38
25947;BME280;13745;51.470;9.894;2023-05-08T06:38:42;100000.69;;;16.91;62.91
25947;BME280;13745;51.470;9.894;2023-05-08T06:41:27;99998.47;;;17.07;62.25
25947;BME280;13745;51.470;9.894;2023-05-08T06:44:12;99997.25;;;17.19;62.11
25947;BME280;13745;51.470;9.894;2023-05-08T06:46:57;99993.44;;;17.29;61.92
25947;BME280;13745;51.470;9.894;2023-05-08T06:49:42;99983.47;;;17.40;61.95
25947;BME280;13745;51.470;9.894;2023-05-08T06:52:28;99991.72;;;17.56;61.96
25947;BME280;13745;51.470;9.894;2023-05-08T06:55:14;99986.81;;;17.73;61.80
25947;BME280;13745;51.470;9.894;2023-05-08T06:58:00;99985.41;;;17.89;61.27
25947;BME280;13745;51.470;9.894;2023-05-08T07:00:45;99986.84;;;17.98;60.81
25947;BME280;13745;51.470;9.894;2023-05-08T07:03:30;99986.91;;;17.96;60.80
25947;BME280;13745;51.470;9.894;2023-05-08T07:06:15;99986.06;;;17.96;60.58
25947;BME280;13745;51.470;9.894;2023-05-08T07:09:02;99986.19;;;17.91;60.37
25947;BME280;13745;51.470;9.894;2023-05-08T07:11:47;99983.56;;;17.91;60.48
25947;BME280;13745;51.470;9.894;2023-05-08T07:14:32;99985.41;;;17.89;60.16
25947;BME280;13745;51.470;9.894;2023-05-08T07:17:17;99996.88;;;17.85;60.14
25947;BME280;13745;51.470;9.894;2023-05-08T07:20:02;99992.63;;;17.83;60.01
25947;BME280;13745;51.470;9.894;2023-05-08T07:22:48;99999.44;;;17.88;60.10
25947;BME280;13745;51.470;9.894;2023-05-08T07:25:34;99993.81;;;17.99;60.27
25947;BME280;13745;51.470;9.894;2023-05-08T07:28:20;99990.56;;;18.17;60.14
25947;BME280;13745;51.470;9.894;2023-05-08T07:31:05;99996.78;;;18.40;60.18
25947;BME280;13745;51.470;9.894;2023-05-08T07:33:50;99989.78;;;18.64;59.97
25947;BME280;13745;51.470;9.894;2023-05-08T07:36:35;99987.22;;;18.87;59.40
25947;BME280;13745;51.470;9.894;2023-05-08T07:39:20;99990.63;;;19.13;59.55
25947;BME280;13745;51.470;9.894;2023-05-08T07:42:06;99979.25;;;19.34;59.38
25947;BME280;13745;51.470;9.894;2023-05-08T07:44:51;99986.19;;;19.58;59.28
25947;BME280;13745;51.470;9.894;2023-05-08T07:47:37;99990.59;;;19.80;59.06
25947;BME280;13745;51.470;9.894;2023-05-08T07:50:23;99988.16;;;19.96;58.94
25947;BME280;13745;51.470;9.894;2023-05-08T07:53:08;99994.50;;;20.12;58.19
25947;BME280;13745;51.470;9.894;2023-05-08T07:55:53;99983.56;;;20.21;58.21
25947;BME280;13745;51.470;9.894;2023-05-08T07:58:39;99986.50;;;20.34;58.02
25947;BME280;13745;51.470;9.894;2023-05-08T08:01:25;99984.03;;;20.51;57.75
25947;BME280;13745;51.470;9.894;2023-05-08T08:04:10;99984.19;;;20.67;57.61
25947;BME280;13745;51.470;9.894;2023-05-08T08:06:55;99978.38;;;20.79;57.11
25947;BME280;13745;51.470;9.894;2023-05-08T08:09:40;99986.72;;;20.89;56.93
25947;BME280;13745;51.470;9.894;2023-05-08T08:12:26;99982.72;;;20.99;56.53
25947;BME280;13745;51.470;9.894;2023-05-08T08:15:13;99989.00;;;21.15;56.02
25947;BME280;13745;51.470;9.894;2023-05-08T08:17:58;99984.66;;;21.33;56.45
25947;BME280;13745;51.470;9.894;2023-05-08T08:20:44;99983.00;;;21.49;56.18
25947;BME280;13745;51.470;9.894;2023-05-08T08:23:30;99983.75;;;21.70;56.33
25947;BME280;13745;51.470;9.894;2023-05-08T08:26:15;99989.59;;;21.94;55.97
25947;BME280;13745;51.470;9.894;2023-05-08T08:29:00;99979.75;;;22.15;55.93
25947;BME280;13745;51.470;9.894;2023-05-08T08:31:47;99976.00;;;22.36;55.34
25947;BME280;13745;51.470;9.894;2023-05-08T08:34:32;99982.88;;;22.56;54.83
25947;BME280;13745;51.470;9.894;2023-05-08T08:37:17;99984.69;;;22.71;53.99
25947;BME280;13745;51.470;9.894;2023-05-08T08:40:03;99984.00;;;22.85;54.16
25947;BME280;13745;51.470;9.894;2023-05-08T08:42:48;99982.22;;;23.02;54.20
25947;BME280;13745;51.470;9.894;2023-05-08T08:45:35;99986.63;;;23.17;54.04
25947;BME280;13745;51.470;9.894;2023-05-08T08:48:25;99972.31;;;23.37;53.71
25947;BME280;13745;51.470;9.894;2023-05-08T08:51:17;99971.44;;;23.52;53.06
25947;BME280;13745;51.470;9.894;2023-05-08T08:54:09;99983.16;;;23.64;52.59
25947;BME280;13745;51.470;9.894;2023-05-08T08:56:55;99984.31;;;23.74;53.09
25947;BME280;13745;51.470;9.894;2023-05-08T08:59:41;99985.06;;;23.92;52.61
25947;BME280;13745;51.470;9.894;2023-05-08T09:02:28;99990.03;;;24.12;52.51
25947;BME280;13745;51.470;9.894;2023-05-08T09:05:16;99979.38;;;24.28;52.03
25947;BME280;13745;51.470;9.894;2023-05-08T09:08:02;99982.47;;;24.50;51.83
25947;BME280;13745;51.470;9.894;2023-05-08T09:10:47;99989.38;;;24.67;51.89
25947;BME280;13745;51.470;9.894;2023-05-08T09:13:32;99984.91;;;24.82;50.76
25947;BME280;13745;51.470;9.894;2023-05-08T09:16:18;99978.66;;;24.83;50.70
25947;BME280;13745;51.470;9.894;2023-05-08T09:19:03;99984.63;;;24.86;50.33
25947;BME280;13745;51.470;9.894;2023-05-08T09:21:50;99985.28;;;24.90;50.53
25947;BME280;13745;51.470;9.894;2023-05-08T09:24:55;99982.25;;;24.96;50.89
25947;BME280;13745;51.470;9.894;2023-05-08T09:27:40;99982.75;;;25.03;50.85
25947;BME280;13745;51.470;9.894;2023-05-08T09:30:26;99981.66;;;25.19;50.65
25947;BME280;13745;51.470;9.894;2023-05-08T09:33:11;99975.56;;;25.32;50.56
25947;BME280;13745;51.470;9.894;2023-05-08T09:35:56;99981.13;;;25.41;50.19
25947;BME280;13745;51.470;9.894;2023-05-08T09:38:43;99973.72;;;25.46;49.58
25947;BME280;13745;51.470;9.894;2023-05-08T09:41:28;99982.13;;;25.53;49.15
25947;BME280;13745;51.470;9.894;2023-05-08T09:44:13;99966.94;;;25.55;49.20
25947;BME280;13745;51.470;9.894;2023-05-08T09:47:09;99972.47;;;25.52;48.68
25947;BME280;13745;51.470;9.894;2023-05-08T09:49:58;99968.56;;;25.58;48.74
25947;BME280;13745;51.470;9.894;2023-05-08T09:52:45;99969.94;;;25.63;49.12
25947;BME280;13745;51.470;9.894;2023-05-08T09:55:46;99965.94;;;25.70;49.73
25947;BME280;13745;51.470;9.894;2023-05-08T09:58:37;99973.44;;;25.78;49.66
25947;BME280;13745;51.470;9.894;2023-05-08T10:01:27;99973.38;;;25.92;49.58
25947;BME280;13745;51.470;9.894;2023-05-08T10:04:13;99969.44;;;26.11;49.15
25947;BME280;13745;51.470;9.894;2023-05-08T10:06:59;99977.34;;;26.25;48.24
25947;BME280;13745;51.470;9.894;2023-05-08T10:09:56;99964.38;;;26.33;48.33
25947;BME280;13745;51.470;9.894;2023-05-08T10:12:43;99956.94;;;26.38;48.92
25947;BME280;13745;51.470;9.894;2023-05-08T10:15:29;99961.84;;;26.44;48.52
25947;BME280;13745;51.470;9.894;2023-05-08T10:18:16;99957.91;;;26.50;47.85
25947;BME280;13745;51.470;9.894;2023-05-08T10:21:05;99960.03;;;26.57;48.03
25947;BME280;13745;51.470;9.894;2023-05-08T10:23:53;99953.09;;;26.68;47.56
25947;BME280;13745;51.470;9.894;2023-05-08T10:26:42;99955.22;;;26.75;47.09
25947;BME280;13745;51.470;9.894;2023-05-08T10:29:33;99958.06;;;26.85;47.25
25947;BME280;13745;51.470;9.894;2023-05-08T10:32:24;99952.81;;;26.96;47.18
25947;BME280;13745;51.470;9.894;2023-05-08T10:35:12;99960.28;;;27.04;46.34
25947;BME280;13745;51.470;9.894;2023-05-08T10:37:58;99950.47;;;27.04;45.94
25947;BME280;13745;51.470;9.894;2023-05-08T10:40:43;99959.44;;;27.03;45.59
25947;BME280;13745;51.470;9.894;2023-05-08T10:43:29;99953.34;;;27.01;46.14
25947;BME280;13745;51.470;9.894;2023-05-08T10:46:20;99946.97;;;27.04;45.73
25947;BME280;13745;51.470;9.894;2023-05-08T10:49:14;99947.06;;;27.15;46.03
25947;BME280;13745;51.470;9.894;2023-05-08T10:52:09;99943.50;;;27.27;45.42
25947;BME280;13745;51.470;9.894;2023-05-08T10:55:11;99947.28;;;27.36;45.89
25947;BME280;13745;51.470;9.894;2023-05-08T10:58:11;99937.03;;;27.42;45.40
25947;BME280;13745;51.470;9.894;2023-05-08T11:01:14;99935.81;;;27.47;45.34
25947;BME280;13745;51.470;9.894;2023-05-08T11:04:00;99937.19;;;27.52;44.94
25947;BME280;13745;51.470;9.894;2023-05-08T11:06:47;99930.44;;;27.59;44.59
25947;BME280;13745;51.470;9.894;2023-05-08T11:09:46;99936.06;;;27.67;44.39
25947;BME280;13745;51.470;9.894;2023-05-08T11:12:31;99933.69;;;27.76;44.00
25947;BME280;13745;51.470;9.894;2023-05-08T11:15:34;99924.25;;;27.83;44.66
25947;BME280;13745;51.470;9.894;2023-05-08T11:18:21;99920.50;;;27.85;44.14
25947;BME280;13745;51.470;9.894;2023-05-08T11:21:14;99915.06;;;27.87;44.75
25947;BME280;13745;51.470;9.894;2023-05-08T11:24:09;99921.50;;;27.95;44.42
25947;BME280;13745;51.470;9.894;2023-05-08T11:26:54;99918.38;;;28.02;43.72
25947;BME280;13745;51.470;9.894;2023-05-08T11:29:39;99912.69;;;28.06;44.39
25947;BME280;13745;51.470;9.894;2023-05-08T11:32:55;99921.16;;;28.11;44.34
25947;BME280;13745;51.470;9.894;2023-05-08T11:35:48;99902.38;;;28.13;44.75
25947;BME280;13745;51.470;9.894;2023-05-08T11:38:35;99907.72;;;28.13;43.94
25947;BME280;13745;51.470;9.894;2023-05-08T11:41:22;99899.84;;;28.11;43.97
25947;BME280;13745;51.470;9.894;2023-05-08T11:44:16;99905.03;;;28.13;44.01
25947;BME280;13745;51.470;9.894;2023-05-08T11:47:02;99905.19;;;28.22;44.79
25947;BME280;13745;51.470;9.894;2023-05-08T11:49:47;99903.13;;;28.26;43.88
25947;BME280;13745;51.470;9.894;2023-05-08T11:52:33;99903.13;;;28.26;43.71
25947;BME280;13745;51.470;9.894;2023-05-08T11:55:20;99897.78;;;28.26;43.46
25947;BME280;13745;51.470;9.894;2023-05-08T11:58:10;99898.88;;;28.23;43.17
25947;BME280;13745;51.470;9.894;2023-05-08T12:00:56;99909.56;;;28.23;43.62
25947;BME280;13745;51.470;9.894;2023-05-08T12:03:41;99901.19;;;28.17;43.09
25947;BME280;13745;51.470;9.894;2023-05-08T12:06:26;99880.19;;;28.12;44.20
25947;BME280;13745;51.470;9.894;2023-05-08T12:09:13;99895.47;;;28.10;43.94
25947;BME280;13745;51.470;9.894;2023-05-08T12:12:00;99897.28;;;28.10;43.73
25947;BME280;13745;51.470;9.894;2023-05-08T12:14:48;99902.38;;;28.13;44.43
25947;BME280;13745;51.470;9.894;2023-05-08T12:17:33;99901.91;;;28.19;44.32
25947;BME280;13745;51.470;9.894;2023-05-08T12:20:19;99897.41;;;28.19;44.16
25947;BME280;13745;51.470;9.894;2023-05-08T12:23:04;99896.34;;;28.22;44.50
25947;BME280;13745;51.470;9.894;2023-05-08T12:25:50;99892.34;;;28.27;44.54
25947;BME280;13745;51.470;9.894;2023-05-08T12:28:38;99886.81;;;28.31;45.44
25947;BME280;13745;51.470;9.894;2023-05-08T12:31:23;99894.69;;;28.32;44.05
25947;BME280;13745;51.470;9.894;2023-05-08T12:34:09;99893.00;;;28.31;44.76
25947;BME280;13745;51.470;9.894;2023-05-08T12:37:02;99885.97;;;28.30;44.95
25947;BME280;13745;51.470;9.894;2023-05-08T12:39:47;99889.09;;;28.35;45.13
25947;BME280;13745;51.470;9.894;2023-05-08T12:42:42;99886.69;;;28.32;44.18
25947;BME280;13745;51.470;9.894;2023-05-08T12:45:32;99879.75;;;28.30;44.60
25947;BME280;13745;51.470;9.894;2023-05-08T12:48:18;99879.25;;;28.24;43.72
25947;BME280;13745;51.470;9.894;2023-05-08T12:51:04;99889.53;;;28.18;43.68
25947;BME280;13745;51.470;9.894;2023-05-08T12:53:50;99888.19;;;28.12;44.28
25947;BME280;13745;51.470;9.894;2023-05-08T12:56:41;99888.06;;;28.03;44.55
25947;BME280;13745;51.470;9.894;2023-05-08T12:59:30;99883.31;;;27.95;44.62
25947;BME280;13745;51.470;9.894;2023-05-08T13:02:18;99877.41;;;27.91;44.65
25947;BME280;13745;51.470;9.894;2023-05-08T13:05:06;99878.13;;;27.93;45.02
25947;BME280;13745;51.470;9.894;2023-05-08T13:07:58;99883.44;;;27.93;44.92
25947;BME280;13745;51.470;9.894;2023-05-08T13:10:47;99887.69;;;27.96;44.30
25947;BME280;13745;51.470;9.894;2023-05-08T13:13:35;99877.03;;;27.96;44.45
25947;BME280;13745;51.470;9.894;2023-05-08T13:16:20;99878.75;;;27.97;44.69
25947;BME280;13745;51.470;9.894;2023-05-08T13:19:07;99877.41;;;27.91;44.71
25947;BME280;13745;51.470;9.894;2023-05-08T13:21:52;99883.91;;;27.87;43.80
25947;BME280;13745;51.470;9.894;2023-05-08T13:24:37;99884.28;;;27.83;44.04
25947;BME280;13745;51.470;9.894;2023-05-08T13:27:22;99887.16;;;27.80;43.84
25947;BME280;13745;51.470;9.894;2023-05-08T13:30:07;99888.38;;;27.76;43.67
25947;BME280;13745;51.470;9.894;2023-05-08T13:32:53;99888.50;;;27.74;42.66
25947;BME280;13745;51.470;9.894;2023-05-08T13:36:12;99886.91;;;27.71;42.70
25947;BME280;13745;51.470;9.894;2023-05-08T13:38:57;99891.84;;;27.65;42.72
25947;BME280;13745;51.470;9.894;2023-05-08T13:41:43;99893.28;;;27.58;43.17
25947;BME280;13745;51.470;9.894;2023-05-08T13:44:28;99892.03;;;27.51;43.73
25947;BME280;13745;51.470;9.894;2023-05-08T13:47:13;99889.81;;;27.44;44.00
25947;BME280;13745;51.470;9.894;2023-05-08T13:50:38;99888.38;;;27.40;44.90
25947;BME280;13745;51.470;9.894;2023-05-08T14:00:27;99870.97;;;27.24;45.35
25947;BME280;13745;51.470;9.894;2023-05-08T14:03:18;99876.75;;;27.18;44.26
25947;BME280;13745;51.470;9.894;2023-05-08T14:06:04;99870.91;;;27.12;44.01
25947;BME280;13745;51.470;9.894;2023-05-08T14:08:49;99877.31;;;27.10;44.29
25947;BME280;13745;51.470;9.894;2023-05-08T14:11:34;99870.50;;;27.06;44.56
25947;BME280;13745;51.470;9.894;2023-05-08T14:14:19;99868.06;;;27.03;44.39
25947;BME280;13745;51.470;9.894;2023-05-08T14:17:06;99878.09;;;26.99;44.09
25947;BME280;13745;51.470;9.894;2023-05-08T14:19:51;99880.97;;;26.96;44.09
25947;BME280;13745;51.470;9.894;2023-05-08T14:22:37;99871.50;;;26.92;44.16
25947;BME280;13745;51.470;9.894;2023-05-08T14:25:22;99866.63;;;26.86;44.29
25947;BME280;13745;51.470;9.894;2023-05-08T14:28:07;99871.53;;;26.79;43.79
25947;BME280;13745;51.470;9.894;2023-05-08T14:30:52;99863.25;;;26.71;44.32
25947;BME280;13745;51.470;9.894;2023-05-08T14:33:38;99869.97;;;26.64;44.41
25947;BME280;13745;51.470;9.894;2023-05-08T14:36:23;99865.88;;;26.60;43.71
25947;BME280;13745;51.470;9.894;2023-05-08T14:39:10;99859.03;;;26.56;44.58
25947;BME280;13745;51.470;9.894;2023-05-08T14:41:55;99859.28;;;26.53;43.51
25947;BME280;13745;51.470;9.894;2023-05-08T14:44:40;99861.31;;;26.49;43.47
25947;BME280;13745;51.470;9.894;2023-05-08T14:47:24;99855.34;;;26.46;43.77
25947;BME280;13745;51.470;9.894;2023-05-08T14:50:11;99850.56;;;26.38;42.83
25947;BME280;13745;51.470;9.894;2023-05-08T14:52:56;99848.00;;;26.37;42.85
25947;BME280;13745;51.470;9.894;2023-05-08T14:55:41;99849.38;;;26.29;42.61